createdAt,value
2018-07-17T00:01:39.392Z,70.60
2018-07-17T00:04:42.607Z,70.60
2018-07-17T00:07:45.785Z,70.50
2018-07-17T00:10:49.044Z,70.20
2018-07-17T00:13:52.299Z,71.00
2018-07-17T00:16:55.513Z,71.60
2018-07-17T00:19:58.719Z,72.00
2018-07-17T00:23:01.906Z,72.60
2018-07-17T00:26:05.259Z,73.50
2018-07-17T00:29:08.508Z,74.00
2018-07-17T00:32:11.698Z,74.60
2018-07-17T00:35:14.899Z,75.30
2018-07-17T00:38:18.277Z,75.90
2018-07-17T00:41:21.443Z,76.70
2018-07-17T00:44:24.679Z,77.10
2018-07-17T00:47:27.885Z,77.70
2018-07-17T00:50:31.082Z,78.00
2018-07-17T00:53:34.287Z,78.00
2018-07-17T00:56:37.474Z,78.10
2018-07-17T00:59:40.690Z,78.40
2018-07-17T01:02:49.601Z,78.60
2018-07-17T01:09:06.641Z,79.30
2018-07-17T01:15:25.514Z,79.50
2018-07-17T01:18:28.829Z,80.00
2018-07-17T01:24:35.114Z,78.20
2018-07-17T01:33:44.313Z,79.40
2018-07-17T01:36:48.325Z,79.20
2018-07-17T01:39:51.565Z,79.20
2018-07-17T01:42:54.729Z,79.20
2018-07-17T01:45:58.030Z,78.80
2018-07-17T01:49:01.193Z,78.90
2018-07-17T01:52:04.501Z,78.90
2018-07-17T01:55:07.804Z,79.20
2018-07-17T01:58:11.143Z,79.10
2018-07-17T02:01:14.333Z,79.50
2018-07-17T02:04:17.470Z,80.00
2018-07-17T02:07:20.693Z,80.50
2018-07-17T02:10:23.875Z,80.70
2018-07-17T02:13:27.080Z,81.00
2018-07-17T02:16:30.271Z,81.50
2018-07-17T02:19:33.487Z,81.40
2018-07-17T02:22:36.646Z,81.70
2018-07-17T02:25:39.858Z,81.80
2018-07-17T02:28:43.059Z,81.70
2018-07-17T02:31:46.353Z,81.60
2018-07-17T02:34:49.706Z,81.00
2018-07-17T02:37:52.950Z,81.00
2018-07-17T02:40:56.454Z,81.70
2018-07-17T02:43:59.650Z,81.50
2018-07-17T02:47:02.872Z,81.20
2018-07-17T02:50:06.084Z,80.90
2018-07-17T02:53:09.246Z,81.00
2018-07-17T02:56:13.044Z,80.90
2018-07-17T02:59:16.299Z,80.80
2018-07-17T03:02:19.542Z,80.80
2018-07-17T03:05:22.839Z,81.00
2018-07-17T03:08:26.048Z,81.80
2018-07-17T03:14:32.227Z,82.70
2018-07-17T03:17:35.286Z,83.00
2018-07-17T03:20:38.385Z,83.00
2018-07-17T03:23:41.450Z,83.10
2018-07-17T03:26:44.543Z,83.00
2018-07-17T03:29:47.638Z,83.10
2018-07-17T03:32:50.695Z,83.20
2018-07-17T03:38:56.634Z,82.80
2018-07-17T03:41:59.728Z,82.90
2018-07-17T03:45:02.802Z,82.90
2018-07-17T03:48:05.892Z,82.40
2018-07-17T03:51:08.939Z,82.40
2018-07-17T03:54:11.993Z,82.60
2018-07-17T03:57:15.099Z,82.50
2018-07-17T04:00:18.217Z,82.00
2018-07-17T04:06:24.161Z,82.30
2018-07-17T04:09:27.244Z,82.00
2018-07-17T04:12:30.370Z,82.10
2018-07-17T04:15:33.448Z,82.20
2018-07-17T04:18:36.516Z,81.90
2018-07-17T04:21:39.625Z,81.50
2018-07-17T04:24:42.709Z,80.80
2018-07-17T04:27:45.785Z,80.50
2018-07-17T04:30:48.897Z,79.70
2018-07-17T04:33:51.941Z,79.80
2018-07-17T04:36:55.029Z,79.60
2018-07-17T04:39:58.097Z,79.40
2018-07-17T04:43:01.181Z,79.30
2018-07-17T04:46:04.418Z,78.70
2018-07-17T04:49:07.513Z,78.50
2018-07-17T04:52:10.591Z,79.30
2018-07-17T04:55:13.680Z,79.40
2018-07-17T04:58:16.737Z,79.70
2018-07-17T05:04:23.067Z,77.70
2018-07-17T05:07:26.158Z,77.90
2018-07-17T05:10:29.249Z,77.20
2018-07-17T05:13:32.346Z,77.60
2018-07-17T05:16:35.462Z,76.60
2018-07-17T05:19:38.517Z,75.60
2018-07-17T05:22:41.598Z,73.60
2018-07-17T05:25:44.693Z,72.40
2018-07-17T05:28:47.817Z,69.80
2018-07-17T05:31:51.117Z,65.90
2018-07-17T05:34:54.224Z,58.00
2018-07-17T05:37:57.305Z,51.30
2018-07-17T05:41:00.382Z,47.00
2018-07-17T05:44:03.448Z,45.60
2018-07-17T05:47:06.689Z,44.50
2018-07-17T05:50:11.205Z,44.00
2018-07-17T05:53:14.289Z,43.50
2018-07-17T05:56:17.363Z,40.90
2018-07-17T05:59:20.409Z,38.30
2018-07-17T06:02:23.493Z,35.80
2018-07-17T06:05:26.560Z,33.80
2018-07-17T06:08:29.619Z,32.40
2018-07-17T06:11:32.689Z,31.00
2018-07-17T06:14:35.740Z,30.80
2018-07-17T06:17:38.810Z,30.50
2018-07-17T06:20:41.942Z,30.90
2018-07-17T06:23:45.083Z,30.30
2018-07-17T06:26:49.131Z,31.40
2018-07-17T06:29:52.369Z,31.40
2018-07-17T06:32:55.604Z,31.00
2018-07-17T06:35:58.717Z,31.00
2018-07-17T06:39:01.874Z,32.00
2018-07-17T06:42:05.017Z,32.20
2018-07-17T06:48:11.809Z,33.00
2018-07-17T06:54:29.806Z,34.50
2018-07-17T06:57:33.030Z,33.00
2018-07-17T07:00:36.218Z,32.00
2018-07-17T07:03:39.467Z,30.80
2018-07-17T07:09:45.805Z,29.10
2018-07-17T07:12:49.067Z,29.00
2018-07-17T07:15:52.290Z,28.50
2018-07-17T07:18:55.502Z,28.00
2018-07-17T07:21:58.704Z,28.60
2018-07-17T07:25:01.882Z,28.50
2018-07-17T07:28:05.277Z,28.20
2018-07-17T07:31:13.390Z,27.40
2018-07-17T07:34:16.662Z,27.80
2018-07-17T07:37:19.949Z,28.00
2018-07-17T07:40:23.092Z,28.20
2018-07-17T07:43:26.329Z,27.90
2018-07-17T07:46:29.474Z,28.30
2018-07-17T07:49:32.569Z,28.50
2018-07-17T07:52:35.862Z,28.60
2018-07-17T07:55:39.151Z,28.20
2018-07-17T07:58:42.202Z,28.40
2018-07-17T08:01:45.317Z,28.10
2018-07-17T08:04:48.408Z,27.80
2018-07-17T08:07:51.482Z,28.10
2018-07-17T08:10:54.567Z,28.90
2018-07-17T08:13:57.621Z,29.20
2018-07-17T08:17:00.699Z,29.20
2018-07-17T08:20:05.876Z,29.40
2018-07-17T08:23:08.935Z,29.20
2018-07-17T08:26:11.990Z,29.00
2018-07-17T08:29:15.259Z,29.60
2018-07-17T08:32:18.357Z,30.40
2018-07-17T08:35:21.428Z,30.30
2018-07-17T08:38:24.520Z,30.90
2018-07-17T08:44:30.452Z,30.50
2018-07-17T08:47:33.542Z,30.20
2018-07-17T08:50:36.618Z,30.40
2018-07-17T08:53:39.677Z,30.50
2018-07-17T08:59:45.629Z,30.60
2018-07-17T09:02:48.702Z,31.10
2018-07-17T09:05:51.832Z,31.30
2018-07-17T09:08:54.845Z,31.60
2018-07-17T09:11:57.909Z,31.20
2018-07-17T09:15:00.977Z,31.10
2018-07-17T09:18:04.045Z,31.60
2018-07-17T09:21:07.772Z,31.10
2018-07-17T09:24:10.822Z,30.60
2018-07-17T09:27:13.877Z,30.20
2018-07-17T09:33:19.845Z,31.70
2018-07-17T09:36:22.924Z,32.50
2018-07-17T09:39:25.990Z,32.10
2018-07-17T09:42:29.049Z,31.70
2018-07-17T09:45:32.277Z,31.40
2018-07-17T09:48:35.337Z,32.40
2018-07-17T09:51:38.380Z,32.90
2018-07-17T09:54:41.454Z,33.20
2018-07-17T09:57:44.513Z,33.10
2018-07-17T10:00:52.974Z,33.70
2018-07-17T10:03:56.045Z,34.40
2018-07-17T10:06:59.096Z,35.30
2018-07-17T10:10:04.241Z,34.30
2018-07-17T10:13:07.356Z,34.50
2018-07-17T10:16:10.442Z,34.30
2018-07-17T10:19:13.521Z,34.40
2018-07-17T10:22:16.602Z,34.60
2018-07-17T10:25:19.710Z,34.50
2018-07-17T10:28:22.817Z,34.70
2018-07-17T10:31:25.864Z,33.80
2018-07-17T10:37:31.774Z,35.20
2018-07-17T10:40:34.893Z,35.10
2018-07-17T10:43:37.965Z,35.00
2018-07-17T10:46:41.022Z,34.60
2018-07-17T10:49:44.081Z,34.40
2018-07-17T10:52:47.141Z,35.00
2018-07-17T10:55:50.257Z,35.00
2018-07-17T10:58:53.329Z,35.50
2018-07-17T11:01:56.409Z,33.60
2018-07-17T11:04:59.474Z,33.50
2018-07-17T11:08:02.525Z,34.60
2018-07-17T11:11:06.865Z,33.10
2018-07-17T11:23:18.665Z,33.70
2018-07-17T11:26:21.849Z,33.20
2018-07-17T11:29:24.920Z,33.60
2018-07-17T11:32:27.971Z,34.20
2018-07-17T11:35:31.065Z,33.10
2018-07-17T11:38:34.277Z,32.70
2018-07-17T11:41:37.301Z,31.80
2018-07-17T11:44:40.454Z,31.60
2018-07-17T11:47:43.546Z,31.60
2018-07-17T11:50:46.593Z,32.00
2018-07-17T11:53:49.653Z,31.40
2018-07-17T11:56:52.722Z,31.80
2018-07-17T11:59:55.770Z,31.00
2018-07-17T12:02:58.909Z,31.70
2018-07-17T12:09:06.529Z,31.70
2018-07-17T12:15:12.612Z,32.50
2018-07-17T12:18:15.710Z,32.90
2018-07-17T12:24:21.724Z,32.40
2018-07-17T12:27:24.793Z,31.60
2018-07-17T12:30:27.874Z,31.50
2018-07-17T12:36:33.813Z,31.90
2018-07-17T12:39:36.877Z,31.90
2018-07-17T12:42:39.930Z,32.20
2018-07-17T12:45:43.194Z,32.40
2018-07-17T12:48:46.257Z,31.90
2018-07-17T12:51:49.329Z,32.20
2018-07-17T12:54:52.421Z,31.30
2018-07-17T12:57:55.462Z,31.80
2018-07-17T13:00:58.745Z,31.30
2018-07-17T13:04:01.818Z,31.30
2018-07-17T13:07:05.083Z,31.90
2018-07-17T13:13:10.997Z,31.80
2018-07-17T13:16:14.085Z,31.40
2018-07-17T13:19:17.196Z,30.70
2018-07-17T13:22:20.262Z,32.00
2018-07-17T13:25:23.329Z,29.90
2018-07-17T13:28:26.401Z,30.00
2018-07-17T13:31:29.464Z,30.10
2018-07-17T13:34:32.519Z,30.00
2018-07-17T13:37:35.582Z,30.00
2018-07-17T13:40:38.645Z,29.30
2018-07-17T13:43:49.026Z,30.00
2018-07-17T13:46:52.007Z,30.60
2018-07-17T13:52:58.142Z,32.10
2018-07-17T13:56:01.370Z,32.60
2018-07-17T13:59:04.516Z,33.00
2018-07-17T14:02:07.648Z,33.30
2018-07-17T14:05:14.663Z,33.70
2018-07-17T14:08:18.951Z,32.30
2018-07-17T14:11:22.006Z,31.70
2018-07-17T14:14:25.096Z,31.60
2018-07-17T14:17:28.199Z,31.30
2018-07-17T14:20:31.242Z,32.00
2018-07-17T14:23:34.377Z,32.60
2018-07-17T14:26:37.397Z,32.60
2018-07-17T14:29:40.441Z,32.80
2018-07-17T14:32:43.522Z,33.10
2018-07-17T14:35:46.672Z,33.00
2018-07-17T14:38:49.715Z,31.70
2018-07-17T14:41:52.785Z,32.00
2018-07-17T14:47:58.686Z,31.90
2018-07-17T14:51:01.781Z,32.10
2018-07-17T14:54:04.873Z,32.50
2018-07-17T14:57:07.955Z,32.60
2018-07-17T15:00:11.638Z,32.80
2018-07-17T15:03:14.698Z,33.40
2018-07-17T15:06:17.775Z,33.70
2018-07-17T15:09:20.872Z,33.40
2018-07-17T15:12:23.956Z,33.80
2018-07-17T15:15:27.113Z,34.10
2018-07-17T15:18:30.113Z,34.10
2018-07-17T15:21:33.205Z,33.90
2018-07-17T15:24:36.257Z,33.70
2018-07-17T15:30:42.201Z,33.80
2018-07-17T15:33:45.270Z,33.90
2018-07-17T15:36:48.342Z,34.50
2018-07-17T15:39:51.409Z,34.30
2018-07-17T15:42:54.470Z,34.80
2018-07-17T15:45:57.540Z,35.10
2018-07-17T15:49:00.690Z,35.40
2018-07-17T15:55:06.644Z,34.70
2018-07-17T15:58:09.749Z,35.00
2018-07-17T16:01:12.829Z,35.10
2018-07-17T16:04:15.899Z,34.60
2018-07-17T16:07:18.957Z,35.20
2018-07-17T16:10:22.028Z,35.30
2018-07-17T16:16:27.981Z,36.40
2018-07-17T16:19:31.061Z,36.30
2018-07-17T16:22:34.170Z,36.20
2018-07-17T16:25:37.229Z,36.80
2018-07-17T16:28:40.313Z,36.80
2018-07-17T16:31:43.474Z,37.20
2018-07-17T16:34:46.570Z,37.20
2018-07-17T16:37:49.624Z,37.40
2018-07-17T16:40:52.688Z,37.30
2018-07-17T16:43:55.773Z,37.30
2018-07-17T16:46:58.880Z,37.60
2018-07-17T16:50:02.080Z,37.80
2018-07-17T16:53:05.235Z,38.00
2018-07-17T16:56:08.309Z,38.30
2018-07-17T16:59:11.849Z,38.00
2018-07-17T17:02:14.940Z,38.30
2018-07-17T17:05:17.996Z,38.00
2018-07-17T17:08:21.090Z,38.70
2018-07-17T17:11:24.178Z,39.30
2018-07-17T17:14:27.262Z,39.10
2018-07-17T17:17:30.331Z,39.30
2018-07-17T17:20:33.393Z,39.40
2018-07-17T17:23:36.473Z,39.50
2018-07-17T17:26:39.580Z,39.80
2018-07-17T17:29:42.661Z,40.20
2018-07-17T17:32:45.793Z,40.30
2018-07-17T17:35:48.829Z,40.80
2018-07-17T17:38:51.907Z,41.30
2018-07-17T17:41:55.000Z,41.60
2018-07-17T17:44:58.101Z,42.00
2018-07-17T17:48:01.157Z,42.20
2018-07-17T17:51:04.232Z,42.20
2018-07-17T17:54:07.289Z,42.70
2018-07-17T17:57:10.313Z,42.80
2018-07-17T18:00:13.378Z,42.80
2018-07-17T18:03:16.576Z,43.10
2018-07-17T18:06:19.681Z,43.30
2018-07-17T18:09:22.741Z,43.40
2018-07-17T18:12:25.800Z,43.70
2018-07-17T18:15:28.873Z,43.60
2018-07-17T18:21:53.211Z,44.40
2018-07-17T18:24:56.293Z,44.70
2018-07-17T18:27:59.430Z,44.80
2018-07-17T18:31:02.518Z,45.20
2018-07-17T18:34:05.970Z,45.40
2018-07-17T18:37:08.962Z,45.50
2018-07-17T18:40:12.046Z,45.60
2018-07-17T18:43:15.291Z,46.00
2018-07-17T18:46:18.369Z,46.30
2018-07-17T18:49:21.442Z,46.40
2018-07-17T18:52:24.511Z,46.80
2018-07-17T18:58:30.443Z,47.10
2018-07-17T19:01:33.523Z,47.30
2018-07-17T19:04:36.601Z,47.40
2018-07-17T19:07:39.657Z,47.40
2018-07-17T19:10:42.735Z,47.70
2018-07-17T19:13:45.805Z,48.00
2018-07-17T19:16:48.935Z,48.20
2018-07-17T19:19:51.948Z,48.50
2018-07-17T19:22:55.028Z,48.70
2018-07-17T19:25:58.101Z,49.00
2018-07-17T19:32:04.085Z,49.50
2018-07-17T19:35:07.197Z,49.80
2018-07-17T19:38:10.276Z,50.00
2018-07-17T19:41:13.313Z,50.20
2018-07-17T19:44:16.378Z,50.50
2018-07-17T19:47:19.510Z,50.60
2018-07-17T19:50:22.518Z,50.90
2018-07-17T19:53:25.674Z,51.20
2018-07-17T19:56:28.933Z,51.30
2018-07-17T19:59:31.989Z,51.60
2018-07-17T20:05:37.933Z,52.00
2018-07-17T20:08:41.079Z,52.20
2018-07-17T20:11:44.118Z,52.50
2018-07-17T20:14:58.606Z,52.50
2018-07-17T20:18:01.693Z,52.80
2018-07-17T20:21:04.769Z,53.10
2018-07-17T20:24:07.841Z,53.20
2018-07-17T20:30:49.495Z,53.70
2018-07-17T20:33:52.677Z,54.00
2018-07-17T20:36:55.849Z,54.20
2018-07-17T20:39:58.961Z,54.30
2018-07-17T20:43:02.035Z,54.30
2018-07-17T20:46:05.249Z,54.70
2018-07-17T20:49:08.324Z,54.70
2018-07-17T20:52:11.421Z,54.70
2018-07-17T20:55:14.463Z,54.90
2018-07-17T20:58:17.529Z,55.00
2018-07-17T21:01:20.591Z,54.70
2018-07-17T21:04:23.650Z,54.90
2018-07-17T21:07:26.705Z,55.10
2018-07-17T21:10:29.774Z,55.30
2018-07-17T21:13:32.828Z,55.50
2018-07-17T21:16:35.898Z,55.70
2018-07-17T21:19:38.977Z,55.90
2018-07-17T21:28:47.884Z,57.10
2018-07-17T21:31:50.936Z,57.60
2018-07-17T21:37:56.930Z,58.40
2018-07-17T21:41:00.001Z,58.80
2018-07-17T21:47:05.930Z,59.80
2018-07-17T21:50:09.014Z,60.20
2018-07-17T21:53:12.085Z,60.70
2018-07-17T21:56:15.142Z,61.10
2018-07-17T21:59:18.206Z,61.40
2018-07-17T22:02:21.265Z,62.00
2018-07-17T22:05:24.342Z,62.60
2018-07-17T22:08:27.460Z,63.20
2018-07-17T22:11:30.538Z,63.70
2018-07-17T22:14:33.630Z,64.10
2018-07-17T22:17:36.711Z,64.50
2018-07-17T22:20:39.825Z,64.90
2018-07-17T22:23:42.897Z,65.50
2018-07-17T22:26:45.973Z,66.10
2018-07-17T22:29:49.044Z,66.50
2018-07-17T22:35:55.000Z,67.80
2018-07-17T22:38:58.077Z,67.60
2018-07-17T22:42:01.134Z,67.90
2018-07-17T22:45:04.306Z,68.20
2018-07-17T22:48:07.389Z,68.60
2018-07-17T22:54:13.449Z,69.10
2018-07-17T22:57:16.502Z,69.60
2018-07-17T23:00:19.624Z,70.70
2018-07-17T23:03:22.713Z,69.80
2018-07-17T23:06:25.760Z,70.40
2018-07-17T23:09:28.829Z,70.70
2018-07-17T23:12:31.904Z,71.10
2018-07-17T23:15:34.993Z,71.60
2018-07-17T23:18:38.070Z,71.80
2018-07-17T23:21:41.164Z,71.90
2018-07-17T23:24:44.924Z,72.10
2018-07-17T23:27:47.989Z,72.40
2018-07-17T23:33:53.947Z,72.90
2018-07-17T23:36:57.043Z,73.10
2018-07-17T23:40:00.098Z,73.20
2018-07-17T23:43:03.150Z,73.50
2018-07-17T23:46:06.218Z,73.60
2018-07-17T23:49:13.793Z,73.80
2018-07-17T23:52:16.852Z,74.10
2018-07-17T23:55:19.946Z,74.70
2018-07-17T23:58:23.013Z,75.50
